createdAt,value
2022-07-30T00:00:24.833Z,100190.84
2022-07-30T00:02:52.504Z,100193.16
2022-07-30T00:05:21.606Z,100192.94
2022-07-30T00:07:48.298Z,100191.47
2022-07-30T00:10:15.058Z,100192.09
2022-07-30T00:12:41.682Z,100185.28
2022-07-30T00:15:08.806Z,100189.00
2022-07-30T00:17:35.479Z,100188.56
2022-07-30T00:20:02.949Z,100187.31
2022-07-30T00:22:30.761Z,100182.16
2022-07-30T00:24:57.630Z,100179.25
2022-07-30T00:27:24.125Z,100170.78
2022-07-30T00:29:50.602Z,100166.63
2022-07-30T00:32:17.361Z,100156.22
2022-07-30T00:34:43.818Z,100155.16
2022-07-30T00:37:10.281Z,100154.13
2022-07-30T00:39:36.940Z,100145.00
2022-07-30T00:42:04.479Z,100149.34
2022-07-30T00:44:31.394Z,100156.00
2022-07-30T00:46:58.412Z,100148.72
2022-07-30T00:49:25.583Z,100141.66
2022-07-30T00:51:52.470Z,100141.72
2022-07-30T00:54:19.418Z,100140.00
2022-07-30T00:56:47.979Z,100137.97
2022-07-30T00:59:14.537Z,100135.41
2022-07-30T01:01:41.241Z,100128.38
2022-07-30T01:04:13.528Z,100125.25
2022-07-30T01:06:40.386Z,100128.31
2022-07-30T01:09:07.751Z,100133.06
2022-07-30T01:11:38.657Z,100130.56
2022-07-30T01:14:06.707Z,100121.00
2022-07-30T01:16:34.961Z,100114.38
2022-07-30T01:19:25.228Z,100111.91
2022-07-30T01:22:03.637Z,100105.03
2022-07-30T01:24:43.437Z,100107.91
2022-07-30T01:27:11.373Z,100107.22
2022-07-30T01:29:39.472Z,100108.31
2022-07-30T01:32:08.541Z,100111.19
2022-07-30T01:34:36.303Z,100111.59
2022-07-30T01:37:04.451Z,100109.03
2022-07-30T01:39:31.926Z,100107.00
2022-07-30T01:41:58.975Z,100098.53
2022-07-30T01:44:26.916Z,100097.28
2022-07-30T01:46:55.208Z,100089.25
2022-07-30T01:49:23.177Z,100083.81
2022-07-30T01:51:50.853Z,100083.88
2022-07-30T01:54:18.379Z,100076.81
2022-07-30T01:56:46.293Z,100070.75
2022-07-30T01:59:14.524Z,100077.81
2022-07-30T02:01:41.067Z,100066.38
2022-07-30T02:04:07.611Z,100068.41
2022-07-30T02:06:38.428Z,100070.53
2022-07-30T02:09:10.898Z,100069.28
2022-07-30T02:12:01.125Z,100070.16
2022-07-30T02:14:31.123Z,100059.13
2022-07-30T02:16:59.139Z,100056.06
2022-07-30T02:19:34.578Z,100062.22
2022-07-30T02:22:08.734Z,100066.31
2022-07-30T02:24:37.523Z,100063.22
2022-07-30T02:27:14.196Z,100053.31
2022-07-30T02:29:42.212Z,100054.38
2022-07-30T02:32:11.806Z,100048.38
2022-07-30T02:34:40.465Z,100042.38
2022-07-30T02:37:09.138Z,100045.66
2022-07-30T02:39:36.437Z,100040.63
2022-07-30T02:42:04.567Z,100032.81
2022-07-30T02:44:31.358Z,100031.78
2022-07-30T02:46:59.185Z,100023.53
2022-07-30T02:49:33.561Z,100029.94
2022-07-30T02:52:00.617Z,100025.41
2022-07-30T02:54:29.973Z,100023.16
2022-07-30T02:56:59.693Z,100022.66
2022-07-30T02:59:26.785Z,100021.25
2022-07-30T03:01:54.123Z,100013.00
2022-07-30T03:04:21.143Z,100011.91
2022-07-30T03:06:49.490Z,100011.13
2022-07-30T03:09:17.995Z,100001.59
2022-07-30T03:11:44.984Z,100003.84
2022-07-30T03:14:11.545Z,100000.97
2022-07-30T03:16:38.738Z,100013.34
2022-07-30T03:19:07.639Z,100016.69
2022-07-30T03:21:35.824Z,100012.72
2022-07-30T03:24:03.745Z,100009.63
2022-07-30T03:26:31.287Z,100008.03
2022-07-30T03:28:58.117Z,100005.56
2022-07-30T03:31:24.782Z,100002.19
2022-07-30T03:33:55.583Z,99998.06
2022-07-30T03:36:22.646Z,100000.16
2022-07-30T03:38:49.926Z,100007.34
2022-07-30T03:41:16.832Z,99991.16
2022-07-30T03:43:43.596Z,99996.72
2022-07-30T03:46:10.840Z,99988.44
2022-07-30T03:48:41.054Z,99988.19
2022-07-30T03:51:10.310Z,99999.81
2022-07-30T03:53:37.165Z,99998.13
2022-07-30T03:56:04.887Z,100004.31
2022-07-30T03:58:35.824Z,100004.97
2022-07-30T04:01:03.086Z,100015.72
2022-07-30T04:03:33.263Z,100018.47
2022-07-30T04:06:00.656Z,100016.59
2022-07-30T04:08:29.905Z,100019.69
2022-07-30T04:10:56.904Z,100026.16
2022-07-30T04:13:23.450Z,100021.78
2022-07-30T04:16:05.852Z,100029.84
2022-07-30T04:18:49.383Z,100022.66
2022-07-30T04:21:18.323Z,100029.53
2022-07-30T04:24:01.869Z,100025.44
2022-07-30T04:26:33.403Z,100014.47
2022-07-30T04:29:00.664Z,100009.91
2022-07-30T04:31:28.260Z,100018.41
2022-07-30T04:33:55.244Z,100007.16
2022-07-30T04:36:25.503Z,100008.66
2022-07-30T04:38:52.040Z,100009.75
2022-07-30T04:41:18.665Z,100009.72
2022-07-30T04:43:45.209Z,100011.84
2022-07-30T04:46:11.844Z,100006.06
2022-07-30T04:48:38.705Z,100020.13
2022-07-30T04:51:28.613Z,100019.31
2022-07-30T04:53:56.333Z,100017.53
2022-07-30T04:56:23.389Z,100012.13
2022-07-30T04:58:51.008Z,100004.88
2022-07-30T05:01:35.916Z,100004.22
2022-07-30T05:04:08.703Z,100006.09
2022-07-30T05:06:35.744Z,99998.63
2022-07-30T05:09:02.803Z,100006.88
2022-07-30T05:11:29.510Z,100009.38
2022-07-30T05:13:56.157Z,100005.63
2022-07-30T05:16:22.864Z,100008.13
2022-07-30T05:18:49.436Z,100006.47
2022-07-30T05:21:16.465Z,100010.63
2022-07-30T05:23:50.542Z,100004.16
2022-07-30T05:26:20.983Z,100005.78
2022-07-30T05:28:52.036Z,100000.22
2022-07-30T05:31:20.257Z,100004.78
2022-07-30T05:33:47.985Z,100005.44
2022-07-30T05:36:14.619Z,100011.88
2022-07-30T05:38:41.223Z,100000.91
2022-07-30T05:41:32.361Z,100001.72
2022-07-30T05:43:55.962Z,99996.34
2022-07-30T05:46:23.661Z,99994.59
2022-07-30T05:48:50.404Z,99993.53
2022-07-30T05:51:18.813Z,99987.72
2022-07-30T05:53:45.500Z,99990.03
2022-07-30T05:56:12.056Z,99995.22
2022-07-30T05:58:38.660Z,99986.94
2022-07-30T06:01:05.473Z,99994.78
2022-07-30T06:03:31.976Z,99983.22
2022-07-30T06:05:58.476Z,99988.59
2022-07-30T06:08:25.090Z,99990.66
2022-07-30T06:10:51.548Z,99998.09
2022-07-30T06:13:18.049Z,99994.59
2022-07-30T06:15:44.916Z,100004.34
2022-07-30T06:18:11.465Z,100000.22
2022-07-30T06:20:37.967Z,100002.31
2022-07-30T06:23:04.700Z,99996.34
2022-07-30T06:25:31.373Z,99996.72
2022-07-30T06:27:57.888Z,99992.59
2022-07-30T06:30:30.355Z,99996.59
2022-07-30T06:32:58.037Z,99990.00
2022-07-30T06:35:24.542Z,99987.53
2022-07-30T06:38:05.865Z,99979.63
2022-07-30T06:40:34.554Z,99969.88
2022-07-30T06:43:01.265Z,99974.44
2022-07-30T06:45:27.907Z,99975.88
2022-07-30T06:47:58.582Z,99977.28
2022-07-30T06:50:25.937Z,99977.53
2022-07-30T06:52:52.621Z,99976.28
2022-07-30T06:55:19.319Z,99975.50
2022-07-30T06:57:45.884Z,99964.56
2022-07-30T07:00:12.852Z,99964.56
2022-07-30T07:02:39.507Z,99955.66
2022-07-30T07:05:07.473Z,99956.88
2022-07-30T07:07:42.968Z,99963.13
2022-07-30T07:10:13.302Z,99961.69
2022-07-30T07:12:40.109Z,99970.16
2022-07-30T07:15:07.353Z,99959.22
2022-07-30T07:17:33.977Z,99953.69
2022-07-30T07:20:02.560Z,99948.69
2022-07-30T07:22:29.683Z,99947.69
2022-07-30T07:24:56.523Z,99947.50
2022-07-30T07:27:23.062Z,99942.09
2022-07-30T07:30:05.038Z,99942.91
2022-07-30T07:32:33.335Z,99942.69
2022-07-30T07:35:03.038Z,99952.69
2022-07-30T07:37:29.620Z,99945.44
2022-07-30T07:39:56.325Z,99946.88
2022-07-30T07:42:23.085Z,99957.03
2022-07-30T07:44:49.599Z,99963.25
2022-07-30T07:47:16.509Z,99958.66
2022-07-30T07:49:43.050Z,99948.91
2022-07-30T07:52:09.585Z,99950.97
2022-07-30T07:54:36.185Z,99949.50
2022-07-30T07:57:04.464Z,99949.84
2022-07-30T07:59:35.877Z,99947.72
2022-07-30T08:02:06.408Z,99948.41
2022-07-30T08:04:34.552Z,99945.84
2022-07-30T08:07:01.493Z,99939.22
2022-07-30T08:09:43.470Z,99944.50
2022-07-30T08:12:11.189Z,99950.94
2022-07-30T08:14:38.261Z,99952.16
2022-07-30T08:17:05.253Z,99941.25
2022-07-30T08:19:32.260Z,99932.56
2022-07-30T08:21:59.909Z,99937.75
2022-07-30T08:24:27.019Z,99930.59
2022-07-30T08:26:53.827Z,99927.97
2022-07-30T08:29:20.581Z,99931.34
2022-07-30T08:31:47.132Z,99932.28
2022-07-30T08:34:13.885Z,99930.66
2022-07-30T08:36:41.157Z,99933.38
2022-07-30T08:39:08.611Z,99930.63
2022-07-30T08:41:36.518Z,99930.75
2022-07-30T08:44:06.831Z,99918.97
2022-07-30T08:46:36.629Z,99922.88
2022-07-30T08:49:07.732Z,99926.25
2022-07-30T08:51:36.813Z,99921.41
2022-07-30T08:54:04.862Z,99927.16
2022-07-30T08:56:32.599Z,99920.84
2022-07-30T08:59:00.383Z,99921.34
2022-07-30T09:01:27.072Z,99930.72
2022-07-30T09:03:54.993Z,99925.81
2022-07-30T09:06:21.801Z,99930.94
2022-07-30T09:08:48.544Z,99936.16
2022-07-30T09:11:15.823Z,99935.25
2022-07-30T09:13:44.575Z,99924.88
2022-07-30T09:16:26.882Z,99925.56
2022-07-30T09:18:54.588Z,99924.38
2022-07-30T09:21:26.048Z,99930.19
2022-07-30T09:24:08.175Z,99926.66
2022-07-30T09:27:03.577Z,99921.44
2022-07-30T09:29:31.683Z,99928.41
2022-07-30T09:32:04.978Z,99928.25
2022-07-30T09:34:34.354Z,99932.81
2022-07-30T09:37:17.057Z,99935.66
2022-07-30T09:39:59.542Z,99933.69
2022-07-30T09:42:28.200Z,99933.47
2022-07-30T09:45:09.196Z,99924.75
2022-07-30T09:47:38.211Z,99920.16
2022-07-30T09:50:13.087Z,99922.03
2022-07-30T09:52:48.942Z,99918.63
2022-07-30T09:55:30.023Z,99917.91
2022-07-30T09:58:04.802Z,99921.09
2022-07-30T10:00:33.492Z,99911.69
2022-07-30T10:03:00.710Z,99916.84
2022-07-30T10:05:39.405Z,99914.47
2022-07-30T10:08:09.295Z,99917.16
2022-07-30T10:10:47.106Z,99920.91
2022-07-30T10:13:20.740Z,99914.66
2022-07-30T10:15:49.699Z,99921.97
2022-07-30T10:18:16.509Z,99920.19
2022-07-30T10:20:45.002Z,99918.78
2022-07-30T10:23:15.922Z,99921.97
2022-07-30T10:25:50.155Z,99917.00
2022-07-30T10:28:22.502Z,99918.66
2022-07-30T10:30:51.753Z,99911.91
2022-07-30T10:33:34.972Z,99910.59
2022-07-30T10:36:04.499Z,99918.72
2022-07-30T10:38:39.401Z,99918.13
2022-07-30T10:41:42.783Z,99923.28
2022-07-30T10:44:43.929Z,99921.81
2022-07-30T10:47:14.198Z,99920.22
2022-07-30T10:49:43.016Z,99915.63
2022-07-30T10:52:10.395Z,99923.75
2022-07-30T10:54:40.226Z,99923.09
2022-07-30T10:57:22.703Z,99925.84
2022-07-30T11:00:01.158Z,99925.13
2022-07-30T11:02:35.828Z,99925.25
2022-07-30T11:05:17.939Z,99921.75
2022-07-30T11:07:47.264Z,99931.53
2022-07-30T11:10:39.667Z,99923.38
2022-07-30T11:13:07.697Z,99917.44
2022-07-30T11:15:54.654Z,99915.72
2022-07-30T11:18:25.025Z,99913.31
2022-07-30T11:21:20.781Z,99921.59
2022-07-30T11:23:49.431Z,99917.53
2022-07-30T11:26:38.527Z,99914.53
2022-07-30T11:29:08.838Z,99916.41
2022-07-30T11:31:58.536Z,99910.03
2022-07-30T11:34:26.043Z,99912.88
2022-07-30T11:37:21.663Z,99905.66
2022-07-30T11:39:58.145Z,99897.13
2022-07-30T11:42:32.856Z,99898.09
2022-07-30T11:45:18.177Z,99896.38
2022-07-30T11:47:49.404Z,99894.59
2022-07-30T11:50:21.329Z,99908.75
2022-07-30T11:52:55.344Z,99894.91
2022-07-30T11:55:30.518Z,99897.84
2022-07-30T11:57:57.617Z,99892.69
2022-07-30T12:00:24.732Z,99888.97
2022-07-30T12:02:51.799Z,99883.19
2022-07-30T12:05:26.194Z,99883.22
2022-07-30T12:07:59.248Z,99876.56
2022-07-30T12:10:26.952Z,99874.50
2022-07-30T12:13:08.002Z,99878.66
2022-07-30T12:15:37.022Z,99872.44
2022-07-30T12:18:25.825Z,99865.81
2022-07-30T12:20:55.267Z,99868.09
2022-07-30T12:23:24.746Z,99868.72
2022-07-30T12:25:51.769Z,99858.13
2022-07-30T12:28:22.933Z,99855.00
2022-07-30T12:30:50.045Z,99844.03
2022-07-30T12:33:16.868Z,99845.25
2022-07-30T12:35:47.957Z,99843.38
2022-07-30T12:38:15.488Z,99842.34
2022-07-30T12:41:03.041Z,99842.09
2022-07-30T12:43:48.077Z,99837.72
2022-07-30T12:46:22.382Z,99837.09
2022-07-30T12:49:21.682Z,99835.47
2022-07-30T12:52:00.201Z,99835.88
2022-07-30T12:54:27.728Z,99830.25
2022-07-30T12:57:06.932Z,99836.50
2022-07-30T12:59:35.362Z,99829.28
2022-07-30T13:02:03.970Z,99837.22
2022-07-30T13:04:33.435Z,99831.84
2022-07-30T13:07:06.930Z,99835.59
2022-07-30T13:09:33.683Z,99834.34
2022-07-30T13:12:00.437Z,99830.66
2022-07-30T13:14:27.169Z,99833.13
2022-07-30T13:16:56.311Z,99839.56
2022-07-30T13:19:23.806Z,99831.09
2022-07-30T13:21:50.292Z,99825.91
2022-07-30T13:24:18.470Z,99825.25
2022-07-30T13:26:45.587Z,99824.41
2022-07-30T13:29:13.678Z,99826.91
2022-07-30T13:31:43.031Z,99827.72
2022-07-30T13:34:10.182Z,99828.13
2022-07-30T13:36:36.710Z,99820.69
2022-07-30T13:39:04.042Z,99828.13
2022-07-30T13:41:30.628Z,99814.59
2022-07-30T13:43:57.299Z,99814.81
2022-07-30T13:46:23.985Z,99818.09
2022-07-30T13:48:50.563Z,99793.63
2022-07-30T13:51:17.096Z,99790.31
2022-07-30T13:53:43.713Z,99788.25
2022-07-30T13:56:12.839Z,99789.16
2022-07-30T13:58:40.058Z,99791.25
2022-07-30T14:01:07.466Z,99784.69
2022-07-30T14:03:35.241Z,99779.75
2022-07-30T14:06:10.904Z,99771.88
2022-07-30T14:08:38.851Z,99771.88
2022-07-30T14:11:05.431Z,99762.97
2022-07-30T14:13:32.038Z,99764.44
2022-07-30T14:15:58.815Z,99761.75
2022-07-30T14:18:25.487Z,99758.00
2022-07-30T14:20:53.699Z,99745.78
2022-07-30T14:23:20.712Z,99734.63
2022-07-30T14:25:47.474Z,99738.97
2022-07-30T14:28:15.450Z,99733.59
2022-07-30T14:30:42.588Z,99730.69
2022-07-30T14:33:09.309Z,99738.75
2022-07-30T14:35:35.858Z,99741.69
2022-07-30T14:38:04.203Z,99741.25
2022-07-30T14:40:30.891Z,99743.75
2022-07-30T14:42:57.973Z,99734.63
2022-07-30T14:45:25.637Z,99730.91
2022-07-30T14:47:52.516Z,99734.63
2022-07-30T14:50:19.147Z,99728.44
2022-07-30T14:52:47.552Z,99727.00
2022-07-30T14:55:14.234Z,99731.94
2022-07-30T14:57:40.771Z,99730.06
2022-07-30T15:00:10.782Z,99726.75
2022-07-30T15:02:37.676Z,99723.25
2022-07-30T15:05:04.521Z,99721.56
2022-07-30T15:07:31.147Z,99720.13
2022-07-30T15:10:01.395Z,99714.94
2022-07-30T15:12:28.058Z,99712.50
2022-07-30T15:14:54.922Z,99712.25
2022-07-30T15:17:22.123Z,99701.06
2022-07-30T15:19:51.532Z,99701.31
2022-07-30T15:22:21.611Z,99693.88
2022-07-30T15:24:48.774Z,99695.06
2022-07-30T15:27:15.331Z,99693.19
2022-07-30T15:29:41.903Z,99683.28
2022-07-30T15:32:08.445Z,99688.66
2022-07-30T15:34:35.109Z,99687.81
2022-07-30T15:37:02.856Z,99696.50
2022-07-30T15:39:32.192Z,99689.66
2022-07-30T15:41:59.296Z,99684.69
2022-07-30T15:44:26.082Z,99681.13
2022-07-30T15:46:52.724Z,99678.66
2022-07-30T15:49:19.339Z,99676.19
2022-07-30T15:51:48.884Z,99665.84
2022-07-30T15:54:16.632Z,99667.50
2022-07-30T15:56:49.919Z,99664.59
2022-07-30T15:59:16.400Z,99657.94
2022-07-30T16:01:44.038Z,99668.69
2022-07-30T16:04:18.984Z,99659.97
2022-07-30T16:06:46.440Z,99664.91
2022-07-30T16:09:13.798Z,99667.34
2022-07-30T16:11:41.688Z,99654.50
2022-07-30T16:14:09.118Z,99644.94
2022-07-30T16:16:35.749Z,99648.47
2022-07-30T16:19:02.795Z,99650.06
2022-07-30T16:21:29.332Z,99643.66
2022-07-30T16:23:56.769Z,99641.31
2022-07-30T16:26:23.428Z,99649.41
2022-07-30T16:28:50.301Z,99646.09
2022-07-30T16:31:17.534Z,99647.53
2022-07-30T16:33:44.022Z,99645.69
2022-07-30T16:36:11.149Z,99639.44
2022-07-30T16:38:37.760Z,99637.81
2022-07-30T16:41:04.579Z,99641.13
2022-07-30T16:43:31.992Z,99645.25
2022-07-30T16:45:59.627Z,99646.03
2022-07-30T16:48:26.342Z,99634.88
2022-07-30T16:50:53.652Z,99637.56
2022-07-30T16:53:20.632Z,99636.69
2022-07-30T16:55:47.288Z,99634.88
2022-07-30T16:58:14.086Z,99630.69
2022-07-30T17:00:41.075Z,99632.75
2022-07-30T17:03:07.786Z,99628.59
2022-07-30T17:05:34.394Z,99638.16
2022-07-30T17:08:01.235Z,99637.16
2022-07-30T17:10:27.976Z,99645.66
2022-07-30T17:12:57.160Z,99643.41
2022-07-30T17:15:32.185Z,99644.06
2022-07-30T17:18:00.521Z,99652.59
2022-07-30T17:20:27.371Z,99646.19
2022-07-30T17:22:57.975Z,99652.47
2022-07-30T17:25:28.081Z,99654.53
2022-07-30T17:27:56.232Z,99651.66
2022-07-30T17:30:23.605Z,99652.53
2022-07-30T17:32:50.477Z,99656.69
2022-07-30T17:35:17.171Z,99649.50
2022-07-30T17:37:43.988Z,99652.22
2022-07-30T17:40:30.247Z,99648.13
2022-07-30T17:43:05.976Z,99646.06
2022-07-30T17:45:34.430Z,99638.84
2022-07-30T17:48:04.375Z,99630.41
2022-07-30T17:50:32.495Z,99640.31
2022-07-30T17:52:59.598Z,99636.19
2022-07-30T17:55:28.117Z,99637.19
2022-07-30T17:57:54.783Z,99634.72
2022-07-30T18:00:21.491Z,99629.31
2022-07-30T18:02:48.433Z,99629.72
2022-07-30T18:05:15.698Z,99625.38
2022-07-30T18:07:43.689Z,99621.63
2022-07-30T18:10:11.228Z,99620.38
2022-07-30T18:12:38.311Z,99618.28
2022-07-30T18:15:06.341Z,99610.88
2022-07-30T18:17:32.971Z,99610.03
2022-07-30T18:19:59.647Z,99606.94
2022-07-30T18:22:29.460Z,99607.53
2022-07-30T18:24:56.868Z,99598.06
2022-07-30T18:27:23.616Z,99601.09
2022-07-30T18:29:50.170Z,99600.91
2022-07-30T18:32:16.713Z,99597.19
2022-07-30T18:34:43.359Z,99597.19
2022-07-30T18:37:09.927Z,99591.44
2022-07-30T18:39:36.443Z,99591.44
2022-07-30T18:42:04.428Z,99588.09
2022-07-30T18:44:31.353Z,99593.06
2022-07-30T18:46:57.827Z,99591.19
2022-07-30T18:49:36.698Z,99595.94
2022-07-30T18:52:04.705Z,99594.50
2022-07-30T18:54:31.655Z,99597.19
2022-07-30T18:56:58.145Z,99594.50
2022-07-30T18:59:24.727Z,99590.97
2022-07-30T19:01:51.247Z,99600.88
2022-07-30T19:04:17.755Z,99597.97
2022-07-30T19:06:44.592Z,99602.13
2022-07-30T19:09:17.204Z,99602.13
2022-07-30T19:11:44.624Z,99602.75
2022-07-30T19:14:12.910Z,99602.09
2022-07-30T19:16:39.861Z,99595.88
2022-07-30T19:19:06.340Z,99606.19
2022-07-30T19:21:33.104Z,99602.44
2022-07-30T19:23:59.788Z,99595.38
2022-07-30T19:26:26.423Z,99582.16
2022-07-30T19:28:53.062Z,99582.16
2022-07-30T19:31:19.745Z,99577.97
2022-07-30T19:33:46.240Z,99572.63
2022-07-30T19:36:15.104Z,99573.00
2022-07-30T19:38:44.239Z,99575.66
2022-07-30T19:41:12.220Z,99570.53
2022-07-30T19:43:40.743Z,99564.31
2022-07-30T19:46:07.356Z,99560.41
2022-07-30T19:48:37.194Z,99564.75
2022-07-30T19:51:04.643Z,99558.94
2022-07-30T19:53:34.366Z,99561.44
2022-07-30T19:56:04.536Z,99548.22
2022-07-30T19:58:37.288Z,99543.06
2022-07-30T20:01:08.297Z,99532.13
2022-07-30T20:03:35.755Z,99518.97
2022-07-30T20:06:07.282Z,99528.28
2022-07-30T20:08:36.807Z,99519.56
2022-07-30T20:11:07.317Z,99519.13
2022-07-30T20:13:45.122Z,99514.81
2022-07-30T20:16:16.153Z,99516.25
2022-07-30T20:18:44.448Z,99505.72
2022-07-30T20:21:15.482Z,99517.69
2022-07-30T20:23:43.276Z,99517.66
2022-07-30T20:26:13.748Z,99512.31
2022-07-30T20:28:41.906Z,99521.41
2022-07-30T20:31:08.592Z,99493.72
2022-07-30T20:33:37.974Z,99514.19
2022-07-30T20:36:06.127Z,99512.50
2022-07-30T20:38:38.649Z,99502.00
2022-07-30T20:41:10.090Z,99510.03
2022-07-30T20:43:46.129Z,99505.28
2022-07-30T20:46:20.132Z,99507.31
2022-07-30T20:48:46.884Z,99515.75
2022-07-30T20:51:13.650Z,99517.59
2022-07-30T20:53:41.993Z,99523.19
2022-07-30T20:56:12.326Z,99527.06
2022-07-30T20:58:40.258Z,99529.47
2022-07-30T21:01:07.701Z,99540.59
2022-07-30T21:03:34.234Z,99546.19
2022-07-30T21:06:02.725Z,99552.56
2022-07-30T21:08:29.425Z,99564.72
2022-07-30T21:10:57.511Z,99570.03
2022-07-30T21:13:27.062Z,99566.91
2022-07-30T21:16:02.211Z,99556.59
2022-07-30T21:18:30.050Z,99547.91
2022-07-30T21:20:57.319Z,99550.13
2022-07-30T21:23:23.923Z,99536.06
2022-07-30T21:26:00.875Z,99540.16
2022-07-30T21:28:30.095Z,99532.50
2022-07-30T21:31:02.829Z,99533.78
2022-07-30T21:33:31.040Z,99533.34
2022-07-30T21:35:58.264Z,99534.34
2022-07-30T21:38:26.623Z,99536.25
2022-07-30T21:40:53.686Z,99534.16
2022-07-30T21:43:29.440Z,99532.06
2022-07-30T21:45:56.459Z,99531.03
2022-07-30T21:48:24.161Z,99524.47
2022-07-30T21:50:50.628Z,99522.19
2022-07-30T21:53:17.273Z,99519.97
2022-07-30T21:55:59.647Z,99521.19
2022-07-30T21:58:26.680Z,99507.81
2022-07-30T22:00:54.985Z,99504.72
2022-07-30T22:04:03.144Z,99498.56
2022-07-30T22:08:55.258Z,99488.88
2022-07-30T22:11:22.319Z,99489.69
2022-07-30T22:13:51.390Z,99483.97
2022-07-30T22:16:21.747Z,99479.00
2022-07-30T22:18:48.761Z,99476.78
2022-07-30T22:21:15.467Z,99471.44
2022-07-30T22:23:58.151Z,99472.25
2022-07-30T22:26:26.784Z,99469.38
2022-07-30T22:28:54.415Z,99467.53
2022-07-30T22:31:21.112Z,99463.44
2022-07-30T22:33:47.764Z,99467.13
2022-07-30T22:36:17.799Z,99455.38
2022-07-30T22:38:58.617Z,99441.97
2022-07-30T22:41:25.969Z,99444.63
2022-07-30T22:43:55.789Z,99434.16
2022-07-30T22:46:30.924Z,99427.94
2022-07-30T22:48:59.344Z,99432.91
2022-07-30T22:54:13.413Z,99423.84
2022-07-30T22:56:40.375Z,99424.03
2022-07-30T22:59:06.843Z,99423.44
2022-07-30T23:01:33.587Z,99417.44
2022-07-30T23:04:01.469Z,99420.75
2022-07-30T23:06:28.182Z,99421.75
2022-07-30T23:08:56.744Z,99414.97
2022-07-30T23:11:23.289Z,99423.44
2022-07-30T23:12:28.283Z,99489.06
2022-07-30T23:12:34.690Z,99428.78
2022-07-30T23:13:53.611Z,99408.16
2022-07-30T23:16:20.373Z,99410.22
2022-07-30T23:18:46.967Z,99396.22
2022-07-30T23:21:14.102Z,99404.88
2022-07-30T23:23:40.772Z,99404.88
2022-07-30T23:26:08.461Z,99397.88
2022-07-30T23:28:35.791Z,99398.28
2022-07-30T23:31:03.922Z,99398.69
2022-07-30T23:33:31.239Z,99386.50
2022-07-30T23:36:00.081Z,99397.03
2022-07-30T23:38:27.076Z,99385.28
2022-07-30T23:40:54.053Z,99380.16
2022-07-30T23:43:20.609Z,99379.53
2022-07-30T23:45:47.279Z,99374.38
2022-07-30T23:48:14.957Z,99377.44
2022-07-30T23:50:41.605Z,99374.97
2022-07-30T23:53:08.273Z,99372.53
2022-07-30T23:55:35.967Z,99362.63
2022-07-30T23:58:03.855Z,99375.00
